Observations for EAST MIDLANDS, United Kingdom (EGNX)

EGNX 130850Z 09010KT 9999 FEW036 01/M01 Q1017   
EGNX 130820Z 11010KT 9999 FEW035 02/M01 Q1017   
EGNX 130750Z 11013KT 9999 FEW033 02/M00 Q1017   
EGNX 130720Z 11012KT 9999 FEW032 02/00 Q1017
EGNX 130650Z 10011KT 9999 FEW033 02/00 Q1016
EGNX 130620Z 11011KT 9999 SCT027 02/00 Q1016
EGNX 130550Z 11010KT 9999 SCT029 02/00 Q1016
EGNX 130520Z 10013KT 9999 SCT022 02/00 Q1016
EGNX 130450Z 11006KT 9999 BKN022 02/M00 Q1016   
EGNX 130420Z 14005KT 9999 BKN024 02/00 Q1016
EGNX 130350Z 11006KT 9999 SCT019 SCT028 02/00 Q1017 
EGNX 130320Z 10010KT 9999 FEW028 01/M00 Q1017   
EGNX 130250Z 11008KT CAVOK 01/M00 Q1017 
EGNX 130220Z 11008G18KT 040V140 9999 SCT033 01/M01 Q1017
EGNX 130150Z 11007KT 9999 SCT032 02/M01 Q1018   
EGNX 130050Z 12008KT 9999 FEW035 01/M01 Q1018   
EGNX 130020Z 11009KT 9999 FEW035 01/M01 Q1018   
EGNX 122350Z 12009KT CAVOK 01/M01 Q1018 
EGNX 122320Z 10009KT 9999 FEW033 00/M02 Q1018   
EGNX 122250Z 12006KT 050V160 9999 FEW033 01/M02 Q1018   
EGNX 122220Z 12008KT 9999 FEW033 01/M02 Q1018   
EGNX 122150Z 12009KT CAVOK 01/M02 Q1018 
EGNX 122120Z 12011KT CAVOK 02/M02 Q1018 
EGNX 122050Z 11010KT CAVOK 01/M02 Q1018 
EGNX 122020Z 12009KT CAVOK 02/M01 Q1019 
EGNX 121950Z 12010KT CAVOK 02/M01 Q1019 
EGNX 121920Z 13010KT CAVOK 02/M01 Q1020 
EGNX 121850Z 12009KT CAVOK 02/M01 Q1020 
EGNX 121820Z 12011KT 9999 FEW035 02/M00 Q1020   
EGNX 121750Z 11011KT 9999 SCT035 03/M00 Q1020   
EGNX 121720Z 12010KT 9999 BKN035 03/00 Q1020
EGNX 121650Z 12009KT 9999 BKN033 03/00 Q1020
EGNX 121620Z 12010KT 9999 SCT032 BKN044 04/01 Q1020 
EGNX 121550Z 11010KT 9999 SCT022 BKN029 05/02 Q1020 
EGNX 121520Z 12010KT 9999 SCT020 BKN025 05/03 Q1020 
EGNX 121450Z 12010KT 9999 BKN019 BKN027 05/04 Q1020 
EGNX 121420Z 11009KT 9999 BKN013 BKN024 05/04 Q1020 
EGNX 121350Z 13010KT 9999 BKN014 05/05 Q1021
EGNX 121320Z 12010KT 7000 SCT004 BKN022 05/05 Q1021 
EGNX 121250Z 12010KT 4000 BR BKN007 BKN018 05/04 Q1021  
EGNX 121220Z 12010KT 5000 HZ SCT008 BKN014 05/04 Q1021  
EGNX 121150Z 12010KT 8000 BKN011 BKN023 05/05 Q1022 
EGNX 121120Z 13009KT 8000 SCT020 BKN039 06/05 Q1022 
EGNX 121050Z 12009KT 8000 SCT020 BKN035 05/05 Q1022 
EGNX 121020Z 12008KT 7000 SCT022 SCT045 05/05 Q1022 
EGNX 120950Z 12009KT 7000 SCT024 05/04 Q1022
EGNX 120920Z 13009KT 8000 SCT020 04/04 Q1022
EGNX 120850Z 13009KT 7000 NSC 04/04 Q1022   
EGNX 120820Z 13008KT 7000 NSC 04/03 Q1022